sensor_id;sensor_type;location;lat;lon;timestamp;P1;durP1;ratioP1;P2;durP2;ratioP2
22983;SDS011;11658;48.908;9.140;2022-07-23T04:01:10;4.70;;;4.27;;
22983;SDS011;11658;48.908;9.140;2022-07-23T04:03:36;4.83;;;4.50;;
22983;SDS011;11658;48.908;9.140;2022-07-23T04:06:02;4.77;;;4.37;;
22983;SDS011;11658;48.908;9.140;2022-07-23T04:08:28;4.90;;;4.40;;
22983;SDS011;11658;48.908;9.140;2022-07-23T04:10:53;4.70;;;4.30;;
22983;SDS011;11658;48.908;9.140;2022-07-23T04:13:19;5.23;;;4.73;;
22983;SDS011;11658;48.908;9.140;2022-07-23T04:15:45;4.73;;;4.33;;
22983;SDS011;11658;48.908;9.140;2022-07-23T04:18:11;4.82;;;4.43;;
22983;SDS011;11658;48.908;9.140;2022-07-23T04:20:36;4.93;;;4.43;;
22983;SDS011;11658;48.908;9.140;2022-07-23T04:23:02;4.93;;;4.53;;
22983;SDS011;11658;48.908;9.140;2022-07-23T04:25:27;5.13;;;4.47;;
22983;SDS011;11658;48.908;9.140;2022-07-23T04:27:53;6.10;;;4.40;;
22983;SDS011;11658;48.908;9.140;2022-07-23T04:30:19;5.57;;;4.67;;
22983;SDS011;11658;48.908;9.140;2022-07-23T04:32:44;4.93;;;4.53;;
22983;SDS011;11658;48.908;9.140;2022-07-23T04:35:10;4.47;;;4.03;;
22983;SDS011;11658;48.908;9.140;2022-07-23T04:37:35;5.35;;;4.53;;
22983;SDS011;11658;48.908;9.140;2022-07-23T04:40:01;5.27;;;4.53;;
22983;SDS011;11658;48.908;9.140;2022-07-23T04:42:27;4.97;;;4.57;;
22983;SDS011;11658;48.908;9.140;2022-07-23T04:44:52;4.53;;;4.10;;
22983;SDS011;11658;48.908;9.140;2022-07-23T04:47:18;5.13;;;4.50;;
22983;SDS011;11658;48.908;9.140;2022-07-23T04:49:43;4.95;;;4.22;;
22983;SDS011;11658;48.908;9.140;2022-07-23T04:52:09;5.40;;;4.75;;
22983;SDS011;11658;48.908;9.140;2022-07-23T04:54:35;4.80;;;4.32;;
22983;SDS011;11658;48.908;9.140;2022-07-23T04:57:00;4.47;;;4.00;;
22983;SDS011;11658;48.908;9.140;2022-07-23T04:59:26;4.60;;;4.20;;
22983;SDS011;11658;48.908;9.140;2022-07-23T05:01:51;4.53;;;4.13;;
22983;SDS011;11658;48.908;9.140;2022-07-23T05:04:17;5.22;;;4.53;;
22983;SDS011;11658;48.908;9.140;2022-07-23T05:06:42;4.40;;;4.00;;
22983;SDS011;11658;48.908;9.140;2022-07-23T05:09:08;4.60;;;4.20;;
22983;SDS011;11658;48.908;9.140;2022-07-23T05:11:34;5.75;;;4.38;;
22983;SDS011;11658;48.908;9.140;2022-07-23T05:14:00;4.75;;;4.40;;
22983;SDS011;11658;48.908;9.140;2022-07-23T05:16:26;5.75;;;4.20;;
22983;SDS011;11658;48.908;9.140;2022-07-23T05:18:51;4.70;;;4.30;;
22983;SDS011;11658;48.908;9.140;2022-07-23T05:21:20;4.78;;;4.25;;
22983;SDS011;11658;48.908;9.140;2022-07-23T05:23:45;4.32;;;4.03;;
22983;SDS011;11658;48.908;9.140;2022-07-23T05:26:11;4.72;;;4.00;;
22983;SDS011;11658;48.908;9.140;2022-07-23T05:28:37;5.00;;;4.60;;
22983;SDS011;11658;48.908;9.140;2022-07-23T05:31:02;5.03;;;4.07;;
22983;SDS011;11658;48.908;9.140;2022-07-23T05:33:29;7.32;;;4.20;;
22983;SDS011;11658;48.908;9.140;2022-07-23T05:35:59;4.90;;;4.38;;
22983;SDS011;11658;48.908;9.140;2022-07-23T05:38:26;6.20;;;4.50;;
22983;SDS011;11658;48.908;9.140;2022-07-23T05:40:52;5.50;;;4.97;;
22983;SDS011;11658;48.908;9.140;2022-07-23T05:43:18;6.85;;;5.47;;
22983;SDS011;11658;48.908;9.140;2022-07-23T05:45:43;5.40;;;4.97;;
22983;SDS011;11658;48.908;9.140;2022-07-23T05:48:09;6.20;;;5.60;;
22983;SDS011;11658;48.908;9.140;2022-07-23T05:50:34;5.15;;;4.70;;
22983;SDS011;11658;48.908;9.140;2022-07-23T05:53:00;8.37;;;5.07;;
22983;SDS011;11658;48.908;9.140;2022-07-23T05:55:25;6.90;;;5.30;;
22983;SDS011;11658;48.908;9.140;2022-07-23T05:57:54;6.23;;;5.27;;
22983;SDS011;11658;48.908;9.140;2022-07-23T06:00:23;5.47;;;4.80;;
22983;SDS011;11658;48.908;9.140;2022-07-23T06:02:50;5.57;;;5.07;;
22983;SDS011;11658;48.908;9.140;2022-07-23T06:05:15;5.97;;;5.37;;
22983;SDS011;11658;48.908;9.140;2022-07-23T06:07:41;6.70;;;5.07;;
22983;SDS011;11658;48.908;9.140;2022-07-23T06:10:07;5.50;;;5.00;;
22983;SDS011;11658;48.908;9.140;2022-07-23T06:12:33;5.23;;;4.73;;
22983;SDS011;11658;48.908;9.140;2022-07-23T06:14:59;6.13;;;5.63;;
22983;SDS011;11658;48.908;9.140;2022-07-23T06:17:24;5.57;;;5.10;;
22983;SDS011;11658;48.908;9.140;2022-07-23T06:19:50;6.07;;;5.20;;
22983;SDS011;11658;48.908;9.140;2022-07-23T06:22:16;5.80;;;5.20;;
22983;SDS011;11658;48.908;9.140;2022-07-23T06:24:41;5.40;;;4.80;;
22983;SDS011;11658;48.908;9.140;2022-07-23T06:27:07;5.20;;;4.70;;
22983;SDS011;11658;48.908;9.140;2022-07-23T06:29:33;5.50;;;5.00;;
22983;SDS011;11658;48.908;9.140;2022-07-23T06:31:58;5.53;;;5.03;;
22983;SDS011;11658;48.908;9.140;2022-07-23T06:34:24;6.03;;;5.13;;
22983;SDS011;11658;48.908;9.140;2022-07-23T06:36:49;5.60;;;5.10;;
22983;SDS011;11658;48.908;9.140;2022-07-23T06:39:15;6.20;;;5.20;;
22983;SDS011;11658;48.908;9.140;2022-07-23T06:41:41;5.40;;;4.85;;
22983;SDS011;11658;48.908;9.140;2022-07-23T06:44:07;7.68;;;5.55;;
22983;SDS011;11658;48.908;9.140;2022-07-23T06:46:32;6.18;;;5.20;;
22983;SDS011;11658;48.908;9.140;2022-07-23T06:48:58;5.68;;;5.07;;
22983;SDS011;11658;48.908;9.140;2022-07-23T06:51:24;5.43;;;4.85;;
22983;SDS011;11658;48.908;9.140;2022-07-23T06:53:49;5.38;;;4.93;;
22983;SDS011;11658;48.908;9.140;2022-07-23T06:56:15;7.55;;;5.75;;
22983;SDS011;11658;48.908;9.140;2022-07-23T06:58:40;6.85;;;5.28;;
22983;SDS011;11658;48.908;9.140;2022-07-23T07:01:06;10.27;;;5.80;;
22983;SDS011;11658;48.908;9.140;2022-07-23T07:03:32;6.43;;;5.30;;
22983;SDS011;11658;48.908;9.140;2022-07-23T07:05:57;7.97;;;6.00;;
22983;SDS011;11658;48.908;9.140;2022-07-23T07:08:23;6.43;;;5.83;;
22983;SDS011;11658;48.908;9.140;2022-07-23T07:10:49;10.10;;;7.13;;
22983;SDS011;11658;48.908;9.140;2022-07-23T07:13:15;7.03;;;6.33;;
22983;SDS011;11658;48.908;9.140;2022-07-23T07:15:40;7.30;;;6.60;;
22983;SDS011;11658;48.908;9.140;2022-07-23T07:18:06;8.97;;;6.37;;
22983;SDS011;11658;48.908;9.140;2022-07-23T07:20:31;7.40;;;6.70;;
22983;SDS011;11658;48.908;9.140;2022-07-23T07:22:57;7.40;;;6.80;;
22983;SDS011;11658;48.908;9.140;2022-07-23T07:25:23;7.77;;;6.97;;
22983;SDS011;11658;48.908;9.140;2022-07-23T07:27:48;9.33;;;7.40;;
22983;SDS011;11658;48.908;9.140;2022-07-23T07:30:14;8.53;;;7.50;;
22983;SDS011;11658;48.908;9.140;2022-07-23T07:32:40;8.07;;;7.27;;
22983;SDS011;11658;48.908;9.140;2022-07-23T07:35:06;8.00;;;7.27;;
22983;SDS011;11658;48.908;9.140;2022-07-23T07:37:32;7.53;;;6.77;;
22983;SDS011;11658;48.908;9.140;2022-07-23T07:39:58;7.80;;;7.10;;
22983;SDS011;11658;48.908;9.140;2022-07-23T07:42:24;8.00;;;7.20;;
22983;SDS011;11658;48.908;9.140;2022-07-23T07:44:49;9.43;;;7.63;;
22983;SDS011;11658;48.908;9.140;2022-07-23T07:47:15;8.33;;;7.53;;
22983;SDS011;11658;48.908;9.140;2022-07-23T07:49:41;8.87;;;7.73;;
22983;SDS011;11658;48.908;9.140;2022-07-23T07:52:08;7.40;;;6.70;;
22983;SDS011;11658;48.908;9.140;2022-07-23T07:54:37;8.23;;;7.23;;
22983;SDS011;11658;48.908;9.140;2022-07-23T07:57:02;8.67;;;7.77;;
22983;SDS011;11658;48.908;9.140;2022-07-23T07:59:28;8.60;;;7.00;;
22983;SDS011;11658;48.908;9.140;2022-07-23T08:01:54;8.90;;;7.20;;
22983;SDS011;11658;48.908;9.140;2022-07-23T08:04:19;8.37;;;7.57;;
22983;SDS011;11658;48.908;9.140;2022-07-23T08:06:45;7.90;;;7.20;;
22983;SDS011;11658;48.908;9.140;2022-07-23T08:09:11;8.17;;;7.33;;
22983;SDS011;11658;48.908;9.140;2022-07-23T08:11:36;10.37;;;7.03;;
22983;SDS011;11658;48.908;9.140;2022-07-23T08:14:02;13.93;;;8.03;;
22983;SDS011;11658;48.908;9.140;2022-07-23T08:16:28;11.23;;;7.20;;
22983;SDS011;11658;48.908;9.140;2022-07-23T08:18:56;7.87;;;7.07;;
22983;SDS011;11658;48.908;9.140;2022-07-23T08:21:24;7.37;;;6.67;;
22983;SDS011;11658;48.908;9.140;2022-07-23T08:23:50;7.43;;;6.67;;
22983;SDS011;11658;48.908;9.140;2022-07-23T08:26:15;8.17;;;6.70;;
22983;SDS011;11658;48.908;9.140;2022-07-23T08:28:41;8.83;;;7.07;;
22983;SDS011;11658;48.908;9.140;2022-07-23T08:31:06;7.83;;;7.03;;
22983;SDS011;11658;48.908;9.140;2022-07-23T08:33:32;6.93;;;6.10;;
22983;SDS011;11658;48.908;9.140;2022-07-23T08:35:58;6.40;;;5.73;;
22983;SDS011;11658;48.908;9.140;2022-07-23T08:38:24;5.78;;;5.28;;
22983;SDS011;11658;48.908;9.140;2022-07-23T08:40:51;7.57;;;5.90;;
22983;SDS011;11658;48.908;9.140;2022-07-23T08:43:23;6.30;;;5.70;;
22983;SDS011;11658;48.908;9.140;2022-07-23T08:45:51;5.80;;;5.28;;
22983;SDS011;11658;48.908;9.140;2022-07-23T08:48:19;6.50;;;5.90;;
22983;SDS011;11658;48.908;9.140;2022-07-23T08:50:47;6.45;;;5.85;;
22983;SDS011;11658;48.908;9.140;2022-07-23T08:53:15;5.95;;;5.45;;
22983;SDS011;11658;48.908;9.140;2022-07-23T08:55:45;5.97;;;5.35;;
22983;SDS011;11658;48.908;9.140;2022-07-23T08:58:16;5.68;;;5.18;;
22983;SDS011;11658;48.908;9.140;2022-07-23T09:00:42;5.78;;;5.18;;
22983;SDS011;11658;48.908;9.140;2022-07-23T09:03:15;5.43;;;4.95;;
22983;SDS011;11658;48.908;9.140;2022-07-23T09:05:42;5.38;;;4.88;;
22983;SDS011;11658;48.908;9.140;2022-07-23T09:08:12;6.57;;;5.20;;
22983;SDS011;11658;48.908;9.140;2022-07-23T09:13:22;4.82;;;4.32;;
22983;SDS011;11658;48.908;9.140;2022-07-23T09:15:50;5.45;;;4.18;;
22983;SDS011;11658;48.908;9.140;2022-07-23T09:18:16;5.88;;;5.32;;
22983;SDS011;11658;48.908;9.140;2022-07-23T09:20:43;6.97;;;5.70;;
22983;SDS011;11658;48.908;9.140;2022-07-23T09:23:09;5.75;;;5.20;;
22983;SDS011;11658;48.908;9.140;2022-07-23T09:25:35;6.00;;;4.80;;
22983;SDS011;11658;48.908;9.140;2022-07-23T09:28:00;6.55;;;5.95;;
22983;SDS011;11658;48.908;9.140;2022-07-23T09:30:29;5.68;;;5.18;;
22983;SDS011;11658;48.908;9.140;2022-07-23T09:35:49;5.55;;;5.10;;
22983;SDS011;11658;48.908;9.140;2022-07-23T09:38:15;6.30;;;5.70;;
22983;SDS011;11658;48.908;9.140;2022-07-23T09:40:42;7.00;;;5.80;;
22983;SDS011;11658;48.908;9.140;2022-07-23T09:43:08;7.15;;;6.47;;
22983;SDS011;11658;48.908;9.140;2022-07-23T09:45:34;7.03;;;5.95;;
22983;SDS011;11658;48.908;9.140;2022-07-23T09:48:13;6.65;;;6.05;;
22983;SDS011;11658;48.908;9.140;2022-07-23T09:50:41;6.25;;;5.72;;
22983;SDS011;11658;48.908;9.140;2022-07-23T09:53:07;6.93;;;6.22;;
22983;SDS011;11658;48.908;9.140;2022-07-23T09:55:33;6.00;;;5.35;;
22983;SDS011;11658;48.908;9.140;2022-07-23T09:58:06;7.80;;;5.63;;
22983;SDS011;11658;48.908;9.140;2022-07-23T10:00:37;5.88;;;5.10;;
22983;SDS011;11658;48.908;9.140;2022-07-23T10:03:03;6.47;;;5.20;;
22983;SDS011;11658;48.908;9.140;2022-07-23T10:05:31;5.57;;;5.07;;
22983;SDS011;11658;48.908;9.140;2022-07-23T10:08:00;5.95;;;5.20;;
22983;SDS011;11658;48.908;9.140;2022-07-23T10:10:27;5.22;;;4.72;;
22983;SDS011;11658;48.908;9.140;2022-07-23T10:12:54;5.45;;;4.95;;
22983;SDS011;11658;48.908;9.140;2022-07-23T10:15:39;5.82;;;5.05;;
22983;SDS011;11658;48.908;9.140;2022-07-23T10:18:06;5.82;;;5.03;;
22983;SDS011;11658;48.908;9.140;2022-07-23T10:20:35;7.38;;;5.03;;
22983;SDS011;11658;48.908;9.140;2022-07-23T10:25:50;4.97;;;4.57;;
22983;SDS011;11658;48.908;9.140;2022-07-23T10:31:52;4.80;;;4.40;;
22983;SDS011;11658;48.908;9.140;2022-07-23T10:34:19;6.50;;;4.28;;
22983;SDS011;11658;48.908;9.140;2022-07-23T10:36:58;4.70;;;4.30;;
22983;SDS011;11658;48.908;9.140;2022-07-23T10:39:33;5.25;;;4.40;;
22983;SDS011;11658;48.908;9.140;2022-07-23T10:44:42;5.07;;;4.25;;
22983;SDS011;11658;48.908;9.140;2022-07-23T10:47:10;4.82;;;4.18;;
22983;SDS011;11658;48.908;9.140;2022-07-23T10:50:03;4.60;;;4.30;;
22983;SDS011;11658;48.908;9.140;2022-07-23T10:58:04;4.35;;;3.97;;
22983;SDS011;11658;48.908;9.140;2022-07-23T11:00:31;4.15;;;3.75;;
22983;SDS011;11658;48.908;9.140;2022-07-23T11:03:02;4.78;;;4.32;;
22983;SDS011;11658;48.908;9.140;2022-07-23T11:05:51;4.65;;;3.95;;
22983;SDS011;11658;48.908;9.140;2022-07-23T11:08:17;5.95;;;3.95;;
22983;SDS011;11658;48.908;9.140;2022-07-23T11:10:51;4.85;;;4.38;;
22983;SDS011;11658;48.908;9.140;2022-07-23T11:32:51;5.32;;;4.47;;
22983;SDS011;11658;48.908;9.140;2022-07-23T11:34:50;6.13;;;4.38;;
22983;SDS011;11658;48.908;9.140;2022-07-23T11:40:14;4.75;;;4.35;;
22983;SDS011;11658;48.908;9.140;2022-07-23T11:42:54;5.25;;;4.72;;
22983;SDS011;11658;48.908;9.140;2022-07-23T11:45:22;4.82;;;4.43;;
22983;SDS011;11658;48.908;9.140;2022-07-23T11:47:49;5.05;;;4.65;;
22983;SDS011;11658;48.908;9.140;2022-07-23T11:50:15;5.20;;;4.80;;
22983;SDS011;11658;48.908;9.140;2022-07-23T11:52:41;5.22;;;4.72;;
22983;SDS011;11658;48.908;9.140;2022-07-23T11:55:08;4.55;;;4.15;;
22983;SDS011;11658;48.908;9.140;2022-07-23T11:57:36;5.97;;;4.40;;
22983;SDS011;11658;48.908;9.140;2022-07-23T12:02:34;6.70;;;5.10;;
22983;SDS011;11658;48.908;9.140;2022-07-23T12:04:59;4.85;;;4.43;;
22983;SDS011;11658;48.908;9.140;2022-07-23T12:10:08;4.82;;;4.43;;
22983;SDS011;11658;48.908;9.140;2022-07-23T12:12:43;5.82;;;4.15;;
22983;SDS011;11658;48.908;9.140;2022-07-23T12:15:11;6.07;;;4.70;;
22983;SDS011;11658;48.908;9.140;2022-07-23T12:17:38;5.55;;;4.95;;
22983;SDS011;11658;48.908;9.140;2022-07-23T12:20:07;4.95;;;4.45;;
22983;SDS011;11658;48.908;9.140;2022-07-23T12:22:39;6.70;;;4.93;;
22983;SDS011;11658;48.908;9.140;2022-07-23T12:25:07;5.70;;;5.20;;
22983;SDS011;11658;48.908;9.140;2022-07-23T12:27:37;5.30;;;4.90;;
22983;SDS011;11658;48.908;9.140;2022-07-23T12:33:01;5.72;;;5.22;;
22983;SDS011;11658;48.908;9.140;2022-07-23T12:35:36;5.18;;;4.78;;
22983;SDS011;11658;48.908;9.140;2022-07-23T12:38:07;6.28;;;5.00;;
22983;SDS011;11658;48.908;9.140;2022-07-23T12:43:10;5.22;;;4.82;;
22983;SDS011;11658;48.908;9.140;2022-07-23T12:48:08;6.85;;;4.85;;
22983;SDS011;11658;48.908;9.140;2022-07-23T12:51:07;5.53;;;4.93;;
22983;SDS011;11658;48.908;9.140;2022-07-23T12:53:51;4.97;;;4.50;;
22983;SDS011;11658;48.908;9.140;2022-07-23T12:58:54;5.30;;;4.80;;
22983;SDS011;11658;48.908;9.140;2022-07-23T13:01:32;4.90;;;4.50;;
22983;SDS011;11658;48.908;9.140;2022-07-23T13:04:06;5.93;;;4.75;;
22983;SDS011;11658;48.908;9.140;2022-07-23T13:09:00;5.80;;;5.22;;
22983;SDS011;11658;48.908;9.140;2022-07-23T13:11:28;5.55;;;5.10;;
22983;SDS011;11658;48.908;9.140;2022-07-23T13:13:53;6.55;;;5.90;;
22983;SDS011;11658;48.908;9.140;2022-07-23T13:16:19;5.88;;;5.28;;
22983;SDS011;11658;48.908;9.140;2022-07-23T13:18:45;8.05;;;5.30;;
22983;SDS011;11658;48.908;9.140;2022-07-23T13:21:10;6.25;;;5.65;;
22983;SDS011;11658;48.908;9.140;2022-07-23T13:23:36;6.60;;;5.93;;
22983;SDS011;11658;48.908;9.140;2022-07-23T13:26:02;6.38;;;5.78;;
22983;SDS011;11658;48.908;9.140;2022-07-23T13:28:28;6.20;;;5.60;;
22983;SDS011;11658;48.908;9.140;2022-07-23T13:30:53;6.18;;;5.50;;
22983;SDS011;11658;48.908;9.140;2022-07-23T13:33:20;6.63;;;5.95;;
22983;SDS011;11658;48.908;9.140;2022-07-23T13:35:48;6.60;;;5.90;;
22983;SDS011;11658;48.908;9.140;2022-07-23T13:38:14;7.20;;;5.70;;
22983;SDS011;11658;48.908;9.140;2022-07-23T13:40:42;5.72;;;5.22;;
22983;SDS011;11658;48.908;9.140;2022-07-23T13:43:09;5.60;;;5.10;;
22983;SDS011;11658;48.908;9.140;2022-07-23T13:45:36;5.47;;;4.97;;
22983;SDS011;11658;48.908;9.140;2022-07-23T13:48:04;5.68;;;5.10;;
22983;SDS011;11658;48.908;9.140;2022-07-23T13:50:30;5.82;;;5.30;;
22983;SDS011;11658;48.908;9.140;2022-07-23T13:52:56;5.70;;;5.20;;
22983;SDS011;11658;48.908;9.140;2022-07-23T13:55:21;5.75;;;5.25;;
22983;SDS011;11658;48.908;9.140;2022-07-23T13:57:47;5.50;;;5.00;;
22983;SDS011;11658;48.908;9.140;2022-07-23T14:00:13;5.18;;;4.68;;
22983;SDS011;11658;48.908;9.140;2022-07-23T14:02:39;5.47;;;4.95;;
22983;SDS011;11658;48.908;9.140;2022-07-23T14:05:06;5.78;;;5.28;;
22983;SDS011;11658;48.908;9.140;2022-07-23T14:07:34;5.25;;;4.85;;
22983;SDS011;11658;48.908;9.140;2022-07-23T14:10:00;4.85;;;4.45;;
22983;SDS011;11658;48.908;9.140;2022-07-23T14:12:26;5.40;;;5.00;;
22983;SDS011;11658;48.908;9.140;2022-07-23T14:14:51;5.60;;;5.10;;
22983;SDS011;11658;48.908;9.140;2022-07-23T14:17:17;5.82;;;5.03;;
22983;SDS011;11658;48.908;9.140;2022-07-23T14:19:43;5.82;;;5.05;;
22983;SDS011;11658;48.908;9.140;2022-07-23T14:22:09;5.85;;;5.13;;
22983;SDS011;11658;48.908;9.140;2022-07-23T14:24:35;5.75;;;5.15;;
22983;SDS011;11658;48.908;9.140;2022-07-23T14:27:01;5.88;;;5.38;;
22983;SDS011;11658;48.908;9.140;2022-07-23T14:29:28;5.60;;;5.10;;
22983;SDS011;11658;48.908;9.140;2022-07-23T14:31:54;5.72;;;5.22;;
22983;SDS011;11658;48.908;9.140;2022-07-23T14:34:20;6.13;;;5.53;;
22983;SDS011;11658;48.908;9.140;2022-07-23T14:36:46;5.88;;;5.38;;
22983;SDS011;11658;48.908;9.140;2022-07-23T14:39:11;5.47;;;5.00;;
22983;SDS011;11658;48.908;9.140;2022-07-23T14:41:37;6.03;;;5.53;;
22983;SDS011;11658;48.908;9.140;2022-07-23T14:44:04;6.32;;;5.72;;
22983;SDS011;11658;48.908;9.140;2022-07-23T14:46:29;5.95;;;5.43;;
22983;SDS011;11658;48.908;9.140;2022-07-23T14:48:55;5.10;;;4.70;;
22983;SDS011;11658;48.908;9.140;2022-07-23T14:51:21;5.90;;;5.40;;
22983;SDS011;11658;48.908;9.140;2022-07-23T14:53:47;5.70;;;5.05;;
22983;SDS011;11658;48.908;9.140;2022-07-23T14:56:13;5.72;;;5.22;;
22983;SDS011;11658;48.908;9.140;2022-07-23T14:58:40;6.43;;;5.10;;
22983;SDS011;11658;48.908;9.140;2022-07-23T15:01:06;5.60;;;4.95;;
22983;SDS011;11658;48.908;9.140;2022-07-23T15:03:32;6.05;;;5.20;;
22983;SDS011;11658;48.908;9.140;2022-07-23T15:05:58;6.35;;;5.75;;
22983;SDS011;11658;48.908;9.140;2022-07-23T15:08:24;9.27;;;5.75;;
22983;SDS011;11658;48.908;9.140;2022-07-23T15:10:49;5.90;;;5.40;;
22983;SDS011;11658;48.908;9.140;2022-07-23T15:13:15;5.72;;;5.30;;
22983;SDS011;11658;48.908;9.140;2022-07-23T15:15:41;6.55;;;5.55;;
22983;SDS011;11658;48.908;9.140;2022-07-23T15:18:07;5.60;;;5.10;;
22983;SDS011;11658;48.908;9.140;2022-07-23T15:20:33;5.53;;;5.10;;
22983;SDS011;11658;48.908;9.140;2022-07-23T15:22:58;5.18;;;4.70;;
22983;SDS011;11658;48.908;9.140;2022-07-23T15:25:24;5.32;;;4.82;;
22983;SDS011;11658;48.908;9.140;2022-07-23T15:27:49;5.85;;;5.35;;
22983;SDS011;11658;48.908;9.140;2022-07-23T15:30:15;5.45;;;5.05;;
22983;SDS011;11658;48.908;9.140;2022-07-23T15:32:41;5.38;;;4.97;;
22983;SDS011;11658;48.908;9.140;2022-07-23T15:35:07;8.27;;;5.13;;
22983;SDS011;11658;48.908;9.140;2022-07-23T15:37:33;7.50;;;4.75;;
22983;SDS011;11658;48.908;9.140;2022-07-23T15:39:59;6.00;;;5.45;;
22983;SDS011;11658;48.908;9.140;2022-07-23T15:42:25;5.65;;;5.03;;
22983;SDS011;11658;48.908;9.140;2022-07-23T15:44:50;5.88;;;5.38;;
22983;SDS011;11658;48.908;9.140;2022-07-23T15:47:17;5.60;;;5.15;;
22983;SDS011;11658;48.908;9.140;2022-07-23T15:49:44;6.45;;;4.55;;
22983;SDS011;11658;48.908;9.140;2022-07-23T15:52:10;5.68;;;5.18;;
22983;SDS011;11658;48.908;9.140;2022-07-23T15:54:36;6.15;;;4.97;;
22983;SDS011;11658;48.908;9.140;2022-07-23T15:57:02;5.63;;;5.13;;
22983;SDS011;11658;48.908;9.140;2022-07-23T15:59:29;6.25;;;4.53;;
22983;SDS011;11658;48.908;9.140;2022-07-23T16:01:54;5.50;;;4.88;;
22983;SDS011;11658;48.908;9.140;2022-07-23T16:04:23;5.43;;;4.93;;
22983;SDS011;11658;48.908;9.140;2022-07-23T16:06:49;6.00;;;5.00;;
22983;SDS011;11658;48.908;9.140;2022-07-23T16:09:15;6.07;;;5.20;;
22983;SDS011;11658;48.908;9.140;2022-07-23T16:11:40;6.45;;;5.13;;
22983;SDS011;11658;48.908;9.140;2022-07-23T16:14:06;5.60;;;5.10;;
22983;SDS011;11658;48.908;9.140;2022-07-23T16:16:32;6.80;;;5.35;;
22983;SDS011;11658;48.908;9.140;2022-07-23T16:18:58;6.32;;;5.78;;
22983;SDS011;11658;48.908;9.140;2022-07-23T16:21:24;6.35;;;5.75;;
22983;SDS011;11658;48.908;9.140;2022-07-23T16:23:50;6.13;;;5.53;;
22983;SDS011;11658;48.908;9.140;2022-07-23T16:26:16;5.90;;;5.40;;
22983;SDS011;11658;48.908;9.140;2022-07-23T16:28:43;6.40;;;5.90;;
22983;SDS011;11658;48.908;9.140;2022-07-23T16:31:09;6.35;;;5.75;;
22983;SDS011;11658;48.908;9.140;2022-07-23T16:33:35;6.63;;;6.00;;
22983;SDS011;11658;48.908;9.140;2022-07-23T16:36:01;7.15;;;6.50;;
22983;SDS011;11658;48.908;9.140;2022-07-23T16:38:27;6.38;;;5.75;;
22983;SDS011;11658;48.908;9.140;2022-07-23T16:40:53;6.40;;;5.88;;
22983;SDS011;11658;48.908;9.140;2022-07-23T16:43:20;8.77;;;6.13;;
22983;SDS011;11658;48.908;9.140;2022-07-23T16:45:46;5.38;;;4.95;;
22983;SDS011;11658;48.908;9.140;2022-07-23T16:48:12;6.97;;;5.70;;
22983;SDS011;11658;48.908;9.140;2022-07-23T16:50:38;6.00;;;5.40;;
22983;SDS011;11658;48.908;9.140;2022-07-23T16:53:04;7.30;;;5.35;;
22983;SDS011;11658;48.908;9.140;2022-07-23T16:55:29;17.58;;;16.17;;
22983;SDS011;11658;48.908;9.140;2022-07-23T16:57:55;13.20;;;12.20;;
22983;SDS011;11658;48.908;9.140;2022-07-23T17:00:21;15.98;;;14.77;;
22983;SDS011;11658;48.908;9.140;2022-07-23T17:02:46;6.50;;;6.00;;
22983;SDS011;11658;48.908;9.140;2022-07-23T17:05:12;6.50;;;5.90;;
22983;SDS011;11658;48.908;9.140;2022-07-23T17:07:38;6.68;;;5.40;;
22983;SDS011;11658;48.908;9.140;2022-07-23T17:10:04;7.22;;;6.63;;
22983;SDS011;11658;48.908;9.140;2022-07-23T17:12:31;6.60;;;6.00;;
22983;SDS011;11658;48.908;9.140;2022-07-23T17:14:56;5.90;;;5.30;;
22983;SDS011;11658;48.908;9.140;2022-07-23T17:17:22;5.55;;;5.05;;
22983;SDS011;11658;48.908;9.140;2022-07-23T17:19:48;5.40;;;4.90;;
22983;SDS011;11658;48.908;9.140;2022-07-23T17:22:13;6.32;;;5.72;;
22983;SDS011;11658;48.908;9.140;2022-07-23T17:24:39;5.60;;;5.10;;
22983;SDS011;11658;48.908;9.140;2022-07-23T17:27:05;5.65;;;5.15;;
22983;SDS011;11658;48.908;9.140;2022-07-23T17:29:30;6.85;;;5.90;;
22983;SDS011;11658;48.908;9.140;2022-07-23T17:31:56;5.50;;;5.10;;
22983;SDS011;11658;48.908;9.140;2022-07-23T17:34:22;5.88;;;5.47;;
22983;SDS011;11658;48.908;9.140;2022-07-23T17:36:47;6.00;;;5.43;;
22983;SDS011;11658;48.908;9.140;2022-07-23T17:39:16;6.38;;;5.75;;
22983;SDS011;11658;48.908;9.140;2022-07-23T17:41:43;6.97;;;5.55;;
22983;SDS011;11658;48.908;9.140;2022-07-23T17:44:16;6.70;;;6.10;;
22983;SDS011;11658;48.908;9.140;2022-07-23T17:46:42;6.82;;;6.22;;
22983;SDS011;11658;48.908;9.140;2022-07-23T17:49:08;6.78;;;6.10;;
22983;SDS011;11658;48.908;9.140;2022-07-23T17:51:34;6.90;;;6.25;;
22983;SDS011;11658;48.908;9.140;2022-07-23T17:54:01;8.38;;;7.22;;
22983;SDS011;11658;48.908;9.140;2022-07-23T17:56:27;6.40;;;5.80;;
22983;SDS011;11658;48.908;9.140;2022-07-23T17:58:53;6.22;;;5.63;;
22983;SDS011;11658;48.908;9.140;2022-07-23T18:01:19;7.25;;;6.57;;
22983;SDS011;11658;48.908;9.140;2022-07-23T18:03:45;6.90;;;6.20;;
22983;SDS011;11658;48.908;9.140;2022-07-23T18:06:12;7.60;;;6.78;;
22983;SDS011;11658;48.908;9.140;2022-07-23T18:08:38;7.15;;;6.55;;
22983;SDS011;11658;48.908;9.140;2022-07-23T18:11:04;7.45;;;6.78;;
22983;SDS011;11658;48.908;9.140;2022-07-23T18:13:30;7.13;;;6.43;;
22983;SDS011;11658;48.908;9.140;2022-07-23T18:15:56;7.18;;;6.55;;
22983;SDS011;11658;48.908;9.140;2022-07-23T18:18:22;8.52;;;6.55;;
22983;SDS011;11658;48.908;9.140;2022-07-23T18:20:48;7.30;;;6.60;;
22983;SDS011;11658;48.908;9.140;2022-07-23T18:23:14;7.10;;;6.40;;
22983;SDS011;11658;48.908;9.140;2022-07-23T18:25:40;7.03;;;6.40;;
22983;SDS011;11658;48.908;9.140;2022-07-23T18:28:05;7.13;;;6.45;;
22983;SDS011;11658;48.908;9.140;2022-07-23T18:30:31;8.23;;;6.43;;
22983;SDS011;11658;48.908;9.140;2022-07-23T18:32:57;7.63;;;6.40;;
22983;SDS011;11658;48.908;9.140;2022-07-23T18:35:23;8.52;;;6.72;;
22983;SDS011;11658;48.908;9.140;2022-07-23T18:37:48;7.35;;;6.65;;
22983;SDS011;11658;48.908;9.140;2022-07-23T18:40:14;7.22;;;6.53;;
22983;SDS011;11658;48.908;9.140;2022-07-23T18:42:40;9.75;;;6.45;;
22983;SDS011;11658;48.908;9.140;2022-07-23T18:45:06;7.53;;;6.72;;
22983;SDS011;11658;48.908;9.140;2022-07-23T18:47:33;7.65;;;6.95;;
22983;SDS011;11658;48.908;9.140;2022-07-23T18:49:59;7.65;;;6.90;;
22983;SDS011;11658;48.908;9.140;2022-07-23T18:52:25;6.90;;;6.30;;
22983;SDS011;11658;48.908;9.140;2022-07-23T18:54:51;7.25;;;6.28;;
22983;SDS011;11658;48.908;9.140;2022-07-23T18:57:17;7.82;;;6.88;;
22983;SDS011;11658;48.908;9.140;2022-07-23T18:59:43;7.78;;;6.28;;
22983;SDS011;11658;48.908;9.140;2022-07-23T19:02:09;7.65;;;6.95;;
22983;SDS011;11658;48.908;9.140;2022-07-23T19:04:34;7.68;;;6.97;;
22983;SDS011;11658;48.908;9.140;2022-07-23T19:07:00;8.05;;;6.47;;
22983;SDS011;11658;48.908;9.140;2022-07-23T19:09:26;7.75;;;6.95;;
22983;SDS011;11658;48.908;9.140;2022-07-23T19:11:51;7.60;;;6.85;;
22983;SDS011;11658;48.908;9.140;2022-07-23T19:14:17;7.82;;;7.03;;
22983;SDS011;11658;48.908;9.140;2022-07-23T19:16:43;7.97;;;7.30;;
22983;SDS011;11658;48.908;9.140;2022-07-23T19:19:09;6.70;;;6.10;;
22983;SDS011;11658;48.908;9.140;2022-07-23T19:21:34;7.32;;;6.63;;
22983;SDS011;11658;48.908;9.140;2022-07-23T19:24:00;7.45;;;6.75;;
22983;SDS011;11658;48.908;9.140;2022-07-23T19:26:26;7.20;;;6.60;;
22983;SDS011;11658;48.908;9.140;2022-07-23T19:28:52;7.68;;;6.95;;
22983;SDS011;11658;48.908;9.140;2022-07-23T19:31:18;6.88;;;6.18;;
22983;SDS011;11658;48.908;9.140;2022-07-23T19:33:48;6.72;;;6.13;;
22983;SDS011;11658;48.908;9.140;2022-07-23T19:36:14;7.68;;;6.88;;
22983;SDS011;11658;48.908;9.140;2022-07-23T19:38:40;7.43;;;6.72;;
22983;SDS011;11658;48.908;9.140;2022-07-23T19:41:07;7.60;;;6.93;;
22983;SDS011;11658;48.908;9.140;2022-07-23T19:43:34;7.38;;;6.60;;
22983;SDS011;11658;48.908;9.140;2022-07-23T19:46:00;6.78;;;6.18;;